Time;durP1;ratioP1;P1;durP2;ratioP2;P2;SDS_P1;SDS_P2;PMS_P1;PMS_P2;Temp;Humidity;BMP_temperature;BMP_pressure;BME280_temperature;BME280_humidity;BME280_pressure;Samples;Min_cycle;Max_cycle;Signal;HPM_P1;HPM_P2
2024/01/26 00:01:53;;;;;;;12.10;7.20;;;9.70;99.90;;;;;;5061105;28;20505;-29
2024/01/26 00:04:19;;;;;;;8.80;5.90;;;9.80;99.90;;;;;;5062564;28;20428;-30
2024/01/26 00:06:47;;;;;;;10.03;6.10;;;9.80;99.90;;;;;;5079931;28;20437;-32
2024/01/26 00:09:13;;;;;;;10.97;7.23;;;9.80;99.90;;;;;;5060730;28;20461;-31
2024/01/26 00:11:40;;;;;;;8.67;6.80;;;9.80;99.90;;;;;;5079625;28;20527;-29
2024/01/26 00:14:07;;;;;;;8.23;5.30;;;9.80;99.90;;;;;;5060209;28;20452;-30
2024/01/26 00:16:34;;;;;;;8.77;6.93;;;9.80;99.90;;;;;;5079842;28;21057;-31
2024/01/26 00:19:01;;;;;;;8.10;6.57;;;9.80;99.90;;;;;;5060381;28;20433;-31
2024/01/26 00:21:27;;;;;;;12.77;7.10;;;9.80;99.90;;;;;;5079510;28;20456;-30
2024/01/26 00:23:53;;;;;;;11.10;6.23;;;9.80;99.90;;;;;;5076202;28;21051;-29
2024/01/26 00:26:24;;;;;;;12.37;5.83;;;9.80;99.90;;;;;;5060887;28;20416;-29
2024/01/26 00:28:50;;;;;;;9.60;6.50;;;9.80;99.90;;;;;;5058267;28;20573;-30
2024/01/26 00:31:17;;;;;;;9.23;6.90;;;9.80;99.90;;;;;;5055600;28;20437;-29
2024/01/26 00:33:46;;;;;;;11.30;6.73;;;9.80;99.90;;;;;;5075445;28;20445;-30
2024/01/26 00:36:13;;;;;;;11.47;6.70;;;9.80;99.90;;;;;;5058248;28;20944;-29
2024/01/26 00:38:40;;;;;;;10.40;7.27;;;9.80;99.90;;;;;;5079787;28;20754;-32
2024/01/26 00:41:06;;;;;;;7.60;6.53;;;9.80;99.90;;;;;;5062128;28;20429;-29
2024/01/26 00:43:33;;;;;;;8.60;6.80;;;9.80;99.90;;;;;;5060812;28;20436;-30
2024/01/26 00:45:59;;;;;;;8.30;6.30;;;9.80;99.90;;;;;;5061374;28;20811;-29
2024/01/26 00:48:26;;;;;;;9.47;6.90;;;9.80;99.90;;;;;;5079435;28;20437;-28
2024/01/26 00:50:54;;;;;;;8.40;6.57;;;9.80;99.90;;;;;;5079481;28;21155;-31
2024/01/26 00:53:21;;;;;;;10.97;6.90;;;9.80;99.90;;;;;;5076130;28;20421;-31
2024/01/26 00:55:49;;;;;;;10.90;6.43;;;9.80;99.90;;;;;;5079936;28;20456;-30
2024/01/26 00:58:16;;;;;;;6.70;6.00;;;9.80;99.90;;;;;;5060708;28;20516;-31
2024/01/26 01:00:42;;;;;;;9.30;5.93;;;9.80;99.90;;;;;;5044875;28;20991;-30
2024/01/26 01:03:10;;;;;;;8.90;6.23;;;9.80;99.90;;;;;;5059159;28;20425;-31
2024/01/26 01:05:37;;;;;;;10.00;6.10;;;9.80;99.90;;;;;;5079731;28;20436;-29
2024/01/26 01:08:05;;;;;;;7.43;5.73;;;9.80;99.90;;;;;;5079020;28;20441;-30
2024/01/26 01:10:31;;;;;;;8.13;7.00;;;9.80;99.90;;;;;;5060582;28;20488;-29
2024/01/26 01:12:59;;;;;;;9.27;6.57;;;9.80;99.90;;;;;;5060782;28;20428;-30
2024/01/26 01:15:25;;;;;;;7.47;6.07;;;9.80;99.90;;;;;;5079202;28;20500;-30
2024/01/26 01:17:52;;;;;;;8.80;6.73;;;9.80;99.90;;;;;;5060960;28;20570;-29
2024/01/26 01:20:18;;;;;;;8.70;5.97;;;9.80;99.90;;;;;;5079831;28;20441;-31
2024/01/26 01:22:47;;;;;;;7.50;5.60;;;9.80;99.90;;;;;;5079752;28;20452;-31
2024/01/26 01:25:13;;;;;;;7.20;5.60;;;9.80;99.90;;;;;;5060795;28;20453;-30
2024/01/26 01:27:40;;;;;;;10.53;6.40;;;9.80;99.90;;;;;;5059944;28;20452;-31
2024/01/26 01:30:09;;;;;;;5.93;5.10;;;9.80;99.90;;;;;;5059317;28;20503;-30
2024/01/26 01:32:37;;;;;;;9.17;5.33;;;9.80;99.90;;;;;;5076965;28;20437;-29
2024/01/26 01:35:04;;;;;;;12.77;6.00;;;9.80;99.90;;;;;;5059683;28;20545;-30
2024/01/26 01:37:32;;;;;;;8.90;6.00;;;9.80;99.90;;;;;;5059894;28;20432;-29
2024/01/26 01:39:58;;;;;;;8.13;5.70;;;9.80;99.90;;;;;;5077819;28;21034;-30
2024/01/26 01:42:24;;;;;;;7.97;5.70;;;9.80;99.90;;;;;;5077803;28;20425;-32
2024/01/26 01:44:51;;;;;;;9.40;5.40;;;9.80;99.90;;;;;;5078829;28;20420;-30
2024/01/26 01:47:17;;;;;;;8.13;6.40;;;9.80;99.90;;;;;;5073560;28;20445;-31
2024/01/26 01:49:43;;;;;;;6.50;5.17;;;9.80;99.90;;;;;;5059612;28;20567;-30
2024/01/26 01:52:15;;;;;;;8.07;5.30;;;9.80;99.90;;;;;;5041776;28;20425;-30
2024/01/26 01:54:44;;;;;;;7.10;5.63;;;9.80;99.90;;;;;;5078119;28;20449;-32
2024/01/26 01:57:14;;;;;;;9.00;5.93;;;9.80;99.90;;;;;;5077870;28;21511;-29
2024/01/26 01:59:43;;;;;;;7.33;5.40;;;9.80;99.90;;;;;;5078087;28;21022;-30
2024/01/26 02:02:11;;;;;;;9.43;6.30;;;9.90;99.90;;;;;;5078299;28;20525;-28
2024/01/26 02:04:39;;;;;;;7.67;6.13;;;9.80;99.90;;;;;;5059466;28;20891;-30
2024/01/26 02:07:05;;;;;;;8.53;5.70;;;9.90;99.90;;;;;;5077315;28;20469;-30
2024/01/26 02:09:31;;;;;;;6.90;6.00;;;9.90;99.90;;;;;;5077742;28;20473;-29
2024/01/26 02:11:59;;;;;;;8.63;5.93;;;9.90;99.90;;;;;;5058768;28;20498;-30
2024/01/26 02:14:26;;;;;;;6.70;5.57;;;9.80;99.90;;;;;;5077414;28;20438;-31
2024/01/26 02:16:53;;;;;;;7.67;5.70;;;9.90;99.90;;;;;;5043144;28;20455;-30
2024/01/26 02:19:20;;;;;;;6.80;5.67;;;9.90;99.90;;;;;;5042227;28;20514;-29
2024/01/26 02:21:47;;;;;;;6.00;5.40;;;9.90;99.90;;;;;;5077309;28;20453;-29
2024/01/26 02:24:15;;;;;;;7.60;5.43;;;9.90;99.90;;;;;;5041883;28;20586;-30
2024/01/26 02:26:41;;;;;;;7.50;6.10;;;9.90;99.90;;;;;;5074081;28;20671;-31
2024/01/26 02:29:08;;;;;;;9.27;6.60;;;9.90;99.90;;;;;;5076656;28;20632;-30
2024/01/26 02:31:34;;;;;;;8.67;6.00;;;9.90;99.90;;;;;;5077416;28;20456;-29
2024/01/26 02:34:00;;;;;;;7.70;6.30;;;9.90;99.90;;;;;;5078022;28;21029;-31
2024/01/26 02:36:28;;;;;;;8.67;5.90;;;9.90;99.90;;;;;;5056878;28;20430;-30
2024/01/26 02:38:58;;;;;;;9.53;6.23;;;9.90;99.90;;;;;;5078242;28;20439;-29
2024/01/26 02:41:24;;;;;;;8.00;5.80;;;9.90;99.90;;;;;;5059952;28;20453;-31
2024/01/26 02:43:51;;;;;;;7.10;5.00;;;9.90;99.90;;;;;;5079013;28;20428;-30
2024/01/26 02:46:18;;;;;;;7.43;5.97;;;9.90;99.90;;;;;;5056031;28;20918;-30
2024/01/26 02:48:44;;;;;;;7.43;5.60;;;9.90;99.90;;;;;;5078854;28;21019;-31
2024/01/26 02:51:15;;;;;;;8.67;6.30;;;9.90;99.90;;;;;;5060771;28;20506;-30
2024/01/26 02:53:41;;;;;;;7.07;5.20;;;9.90;99.90;;;;;;5059429;28;21341;-32
2024/01/26 02:56:10;;;;;;;6.57;5.87;;;9.90;99.90;;;;;;5078799;28;20464;-30
2024/01/26 02:58:38;;;;;;;7.30;5.50;;;9.90;99.90;;;;;;5077658;28;20479;-30
2024/01/26 03:01:07;;;;;;;9.10;5.77;;;9.90;99.90;;;;;;5078854;28;20448;-30
2024/01/26 03:03:33;;;;;;;7.07;6.37;;;9.90;99.90;;;;;;5058497;28;20416;-31
2024/01/26 03:05:59;;;;;;;7.07;5.97;;;9.90;99.90;;;;;;5058981;28;20889;-31
2024/01/26 03:08:31;;;;;;;5.97;5.37;;;9.90;99.90;;;;;;5077201;28;20420;-37
2024/01/26 03:10:57;;;;;;;6.93;5.90;;;9.90;99.90;;;;;;5055109;28;20477;-30
2024/01/26 03:13:23;;;;;;;6.90;5.57;;;9.90;99.90;;;;;;5058131;28;20463;-36
2024/01/26 03:15:51;;;;;;;7.63;6.07;;;9.90;99.90;;;;;;5076850;28;20421;-34
2024/01/26 03:18:18;;;;;;;6.63;5.93;;;9.90;99.90;;;;;;5024314;28;20448;-33
2024/01/26 03:20:44;;;;;;;7.70;5.83;;;9.90;99.90;;;;;;5058276;28;20429;-31
2024/01/26 03:23:12;;;;;;;6.43;5.60;;;9.90;99.90;;;;;;5042802;28;20429;-29
2024/01/26 03:25:40;;;;;;;8.20;6.40;;;9.90;99.90;;;;;;5077290;28;20570;-37
2024/01/26 03:28:06;;;;;;;6.43;5.57;;;9.90;99.90;;;;;;5076820;28;21285;-37
2024/01/26 03:30:33;;;;;;;7.30;5.97;;;9.90;99.90;;;;;;5077023;28;21285;-33
2024/01/26 03:33:00;;;;;;;10.00;5.70;;;9.90;99.90;;;;;;5071002;22;20508;-29
2024/01/26 03:35:28;;;;;;;9.43;5.80;;;9.90;99.90;;;;;;5040040;28;20419;-29
2024/01/26 03:37:55;;;;;;;8.00;6.30;;;9.90;99.90;;;;;;5041108;28;20430;-29
2024/01/26 03:40:24;;;;;;;8.47;6.00;;;9.90;99.90;;;;;;5032359;28;20472;-34
2024/01/26 03:42:51;;;;;;;8.50;5.37;;;10.00;99.90;;;;;;5019812;28;21341;-29
2024/01/26 03:45:17;;;;;;;8.07;5.60;;;9.90;99.90;;;;;;5002254;28;20419;-26
2024/01/26 03:47:43;;;;;;;6.13;5.23;;;10.00;99.90;;;;;;5000915;28;20427;-36
2024/01/26 03:50:12;;;;;;;8.30;6.30;;;10.00;99.90;;;;;;5018001;28;20470;-35
2024/01/26 03:52:38;;;;;;;7.07;4.90;;;10.00;99.90;;;;;;5002945;28;20431;-32
2024/01/26 03:55:07;;;;;;;6.70;5.60;;;10.00;99.90;;;;;;5005631;28;20916;-31
2024/01/26 03:57:35;;;;;;;6.43;5.60;;;10.00;99.90;;;;;;5023491;28;20565;-30
2024/01/26 04:00:06;;;;;;;6.50;5.63;;;10.00;99.90;;;;;;5004052;28;20908;-31
2024/01/26 04:02:53;;;;;;;6.30;5.27;;;10.00;99.90;;;;;;4983215;28;20503;-30
2024/01/26 04:05:22;;;;;;;7.43;6.60;;;10.00;99.90;;;;;;4979778;28;20468;-32
2024/01/26 04:07:48;;;;;;;6.23;5.63;;;10.00;99.90;;;;;;4964722;28;21314;-31
2024/01/26 04:10:15;;;;;;;6.33;5.77;;;10.00;99.90;;;;;;4979280;28;20564;-30
2024/01/26 04:12:41;;;;;;;7.13;5.50;;;10.00;99.90;;;;;;4962910;28;20663;-30
2024/01/26 04:15:07;;;;;;;5.70;4.90;;;10.00;99.90;;;;;;4979169;28;20484;-30
2024/01/26 04:17:38;;;;;;;6.07;5.50;;;10.00;99.90;;;;;;4980653;28;20447;-30
2024/01/26 04:20:05;;;;;;;6.27;5.67;;;10.00;99.90;;;;;;4946595;28;20561;-32
2024/01/26 04:22:31;;;;;;;8.43;6.03;;;10.00;99.90;;;;;;4959958;28;21028;-29
2024/01/26 04:24:57;;;;;;;6.33;5.20;;;10.00;99.90;;;;;;4977179;28;20430;-31
2024/01/26 04:27:25;;;;;;;5.60;5.10;;;10.00;99.90;;;;;;4975821;28;21024;-30
2024/01/26 04:29:51;;;;;;;6.10;5.50;;;10.00;99.90;;;;;;4961300;28;20481;-33
2024/01/26 04:32:18;;;;;;;6.63;6.00;;;10.00;99.90;;;;;;4960826;28;20449;-32
2024/01/26 04:34:45;;;;;;;6.33;5.23;;;10.00;99.90;;;;;;4997629;28;20474;-32
2024/01/26 04:37:11;;;;;;;6.10;5.50;;;10.00;99.90;;;;;;4999195;28;20432;-29
2024/01/26 04:39:37;;;;;;;5.77;5.10;;;10.00;99.90;;;;;;5000432;28;21007;-29
2024/01/26 04:42:08;;;;;;;6.57;5.53;;;10.00;99.90;;;;;;5000536;28;20511;-30
2024/01/26 04:44:38;;;;;;;5.20;4.70;;;10.00;99.90;;;;;;4997916;28;21149;-29
2024/01/26 04:47:04;;;;;;;4.97;4.50;;;10.00;99.90;;;;;;4997416;28;20440;-29
2024/01/26 04:49:30;;;;;;;6.40;5.37;;;10.00;99.90;;;;;;4998647;28;20464;-32
2024/01/26 04:52:01;;;;;;;6.13;4.87;;;10.00;99.90;;;;;;5000816;28;20448;-31
2024/01/26 04:54:27;;;;;;;6.73;5.00;;;10.00;99.90;;;;;;4999858;28;20424;-28
2024/01/26 04:56:53;;;;;;;6.13;5.07;;;10.00;99.90;;;;;;5007457;28;20523;-31
2024/01/26 04:59:19;;;;;;;5.67;4.57;;;10.00;99.90;;;;;;4999057;28;20445;-33
2024/01/26 05:01:47;;;;;;;6.70;6.10;;;10.00;99.90;;;;;;4995281;28;20538;-31
2024/01/26 05:04:14;;;;;;;4.90;4.27;;;10.00;99.90;;;;;;4998988;28;20865;-30
2024/01/26 05:06:42;;;;;;;5.43;4.93;;;10.00;99.90;;;;;;4997185;28;20456;-30
2024/01/26 05:09:09;;;;;;;4.70;4.20;;;10.00;99.90;;;;;;4997034;28;20464;-31
2024/01/26 05:11:36;;;;;;;5.23;4.73;;;10.00;99.90;;;;;;4999312;28;20536;-30
2024/01/26 05:14:02;;;;;;;5.93;4.90;;;10.00;99.90;;;;;;4997709;28;20440;-29
2024/01/26 05:16:31;;;;;;;5.93;4.90;;;10.00;99.90;;;;;;4998901;28;20417;-31
2024/01/26 05:18:57;;;;;;;5.80;4.70;;;10.10;99.90;;;;;;4996544;28;20445;-30
2024/01/26 05:21:23;;;;;;;4.60;4.17;;;10.10;99.90;;;;;;4997854;28;20491;-29
2024/01/26 05:23:54;;;;;;;7.10;4.80;;;10.10;99.90;;;;;;4998680;28;20431;-30
2024/01/26 05:26:24;;;;;;;5.70;4.80;;;10.10;99.90;;;;;;4998288;28;20426;-30
2024/01/26 05:28:50;;;;;;;5.80;4.30;;;10.10;99.90;;;;;;4998579;28;20421;-30
2024/01/26 05:31:17;;;;;;;8.43;5.07;;;10.10;99.90;;;;;;4998783;28;20456;-28
2024/01/26 05:33:43;;;;;;;9.10;4.87;;;10.10;99.90;;;;;;5014602;28;20431;-31
2024/01/26 05:36:09;;;;;;;4.80;4.30;;;10.10;99.90;;;;;;4998637;28;20423;-29
2024/01/26 05:38:35;;;;;;;4.60;4.20;;;10.10;99.90;;;;;;4999748;28;20702;-30
2024/01/26 05:41:01;;;;;;;4.43;4.03;;;10.10;99.90;;;;;;5015566;28;20638;-29
2024/01/26 05:43:27;;;;;;;6.30;4.67;;;10.10;99.90;;;;;;4999838;28;20433;-31
2024/01/26 05:45:53;;;;;;;4.70;4.30;;;10.10;99.90;;;;;;5000291;28;20436;-30
2024/01/26 05:48:19;;;;;;;6.33;5.07;;;10.10;99.90;;;;;;5015182;28;20432;-32
2024/01/26 05:50:47;;;;;;;4.87;4.37;;;10.10;99.90;;;;;;5018368;28;20475;-30
2024/01/26 05:53:17;;;;;;;4.97;4.47;;;10.10;99.90;;;;;;4998339;28;20515;-30
2024/01/26 05:55:44;;;;;;;5.43;4.37;;;10.10;99.90;;;;;;5018440;28;20455;-31
2024/01/26 05:58:09;;;;;;;5.00;4.33;;;10.10;99.90;;;;;;5004038;28;20458;-30
2024/01/26 06:01:01;;;;;;;4.50;3.90;;;10.10;99.90;;;;;;5022366;28;20447;-30
2024/01/26 06:03:29;;;;;;;5.20;3.80;;;10.10;99.90;;;;;;4987367;28;20970;-29
2024/01/26 06:05:55;;;;;;;4.43;4.03;;;10.10;99.90;;;;;;5024411;28;20448;-29
2024/01/26 06:08:21;;;;;;;3.93;3.63;;;10.10;99.90;;;;;;5020697;28;20489;-32
2024/01/26 06:10:49;;;;;;;4.70;4.20;;;10.10;99.90;;;;;;5017439;28;20479;-32
2024/01/26 06:13:15;;;;;;;6.70;4.23;;;10.10;99.90;;;;;;5019248;28;20420;-32
2024/01/26 06:15:41;;;;;;;4.07;3.73;;;10.10;99.90;;;;;;5001346;28;20443;-29
2024/01/26 06:18:07;;;;;;;4.20;3.53;;;10.10;99.90;;;;;;5018761;28;20970;-32
2024/01/26 06:20:33;;;;;;;5.07;3.50;;;10.10;99.90;;;;;;4983437;28;20466;-31
2024/01/26 06:23:00;;;;;;;3.40;3.10;;;10.10;99.90;;;;;;4999331;28;20483;-30
2024/01/26 06:25:26;;;;;;;5.37;3.67;;;10.10;99.90;;;;;;5013681;28;20493;-31
2024/01/26 06:27:55;;;;;;;4.80;3.17;;;10.10;99.90;;;;;;5014091;28;20553;-31
2024/01/26 06:30:21;;;;;;;4.20;3.87;;;10.10;99.90;;;;;;5021317;28;20524;-28
2024/01/26 06:32:49;;;;;;;3.73;3.37;;;10.10;99.90;;;;;;5014385;28;20443;-32
2024/01/26 06:35:15;;;;;;;3.50;3.20;;;10.10;99.90;;;;;;4998288;28;20448;-31
2024/01/26 06:37:41;;;;;;;5.10;3.70;;;10.10;99.90;;;;;;4986758;28;21139;-33
2024/01/26 06:40:11;;;;;;;4.13;3.70;;;10.20;99.90;;;;;;4998906;28;20456;-29
2024/01/26 06:42:40;;;;;;;3.67;3.37;;;10.10;99.90;;;;;;5020237;28;20440;-33
2024/01/26 06:45:11;;;;;;;3.50;3.20;;;10.20;99.90;;;;;;4998487;28;20572;-30
2024/01/26 06:47:37;;;;;;;3.97;3.50;;;10.20;99.90;;;;;;4999520;28;21118;-32
2024/01/26 06:50:04;;;;;;;4.73;3.30;;;10.20;99.90;;;;;;4997964;28;21085;-31
2024/01/26 06:52:31;;;;;;;4.43;3.43;;;10.20;99.90;;;;;;5015453;28;21179;-29
2024/01/26 06:54:58;;;;;;;3.47;3.07;;;10.20;99.90;;;;;;4999746;28;20804;-29
2024/01/26 06:57:24;;;;;;;3.13;2.77;;;10.20;99.90;;;;;;5000441;28;20963;-30
2024/01/26 06:59:50;;;;;;;4.07;3.27;;;10.20;99.90;;;;;;5018087;28;20424;-33
2024/01/26 07:02:21;;;;;;;3.27;2.73;;;10.20;99.90;;;;;;4996405;28;20471;-33
2024/01/26 07:04:49;;;;;;;3.73;3.27;;;10.20;99.90;;;;;;5006688;28;20494;-33
2024/01/26 07:07:15;;;;;;;3.37;3.07;;;10.20;99.90;;;;;;5017868;28;20423;-30
2024/01/26 07:09:44;;;;;;;3.80;2.93;;;10.20;99.90;;;;;;4999247;28;20471;-31
2024/01/26 07:12:14;;;;;;;3.90;3.10;;;10.20;99.90;;;;;;4999539;28;20434;-29
2024/01/26 07:14:40;;;;;;;3.60;2.97;;;10.20;99.90;;;;;;5000234;28;20427;-34
2024/01/26 07:17:06;;;;;;;3.73;2.60;;;10.20;99.90;;;;;;5000402;28;20994;-30
2024/01/26 07:19:32;;;;;;;3.03;2.73;;;10.20;99.90;;;;;;5000485;28;20427;-33
2024/01/26 07:21:58;;;;;;;4.17;3.10;;;10.20;99.90;;;;;;5018415;28;20451;-29
2024/01/26 07:24:24;;;;;;;4.50;3.37;;;10.20;99.90;;;;;;5000531;28;20478;-33
2024/01/26 07:26:53;;;;;;;3.10;2.80;;;10.20;99.90;;;;;;5017721;28;20440;-32
2024/01/26 07:29:20;;;;;;;3.00;2.70;;;10.20;99.90;;;;;;4999882;28;20471;-32
2024/01/26 07:31:46;;;;;;;2.50;2.30;;;10.20;99.90;;;;;;4983796;28;20965;-32
2024/01/26 07:34:13;;;;;;;3.00;2.70;;;10.20;99.90;;;;;;5014061;28;20526;-31
2024/01/26 07:36:42;;;;;;;2.83;2.47;;;10.20;99.90;;;;;;5017702;28;21247;-31
2024/01/26 07:39:09;;;;;;;3.00;2.70;;;10.20;99.90;;;;;;5013514;28;20455;-27
2024/01/26 07:41:36;;;;;;;3.43;3.00;;;10.20;99.90;;;;;;5014885;28;21116;-31
2024/01/26 07:44:02;;;;;;;3.23;2.93;;;10.20;99.90;;;;;;5003231;28;20966;-29
2024/01/26 07:46:31;;;;;;;3.43;2.63;;;10.20;99.90;;;;;;5018784;28;20824;-29
2024/01/26 07:48:57;;;;;;;3.87;3.13;;;10.20;99.90;;;;;;4984537;28;20427;-29
2024/01/26 07:51:23;;;;;;;2.70;2.47;;;10.20;99.90;;;;;;5018576;28;20900;-31
2024/01/26 07:53:49;;;;;;;5.30;3.20;;;10.20;99.90;;;;;;4997078;28;20428;-32
2024/01/26 07:56:16;;;;;;;2.90;2.70;;;10.30;99.90;;;;;;5021675;28;20419;-31
2024/01/26 07:58:45;;;;;;;2.90;2.60;;;10.20;99.90;;;;;;4988281;28;20479;-29
2024/01/26 08:01:13;;;;;;;3.03;2.60;;;10.20;99.90;;;;;;4998741;28;21018;-34
2024/01/26 08:03:40;;;;;;;3.97;3.00;;;10.20;99.90;;;;;;4995252;28;20466;-34
2024/01/26 08:06:09;;;;;;;4.07;2.83;;;10.20;99.90;;;;;;5025629;28;20424;-32
2024/01/26 08:08:36;;;;;;;2.90;2.50;;;10.20;99.90;;;;;;5019029;28;20683;-30
2024/01/26 08:11:02;;;;;;;2.97;2.63;;;10.30;99.90;;;;;;5019962;28;20687;-29
2024/01/26 08:13:33;;;;;;;2.90;2.50;;;10.20;99.90;;;;;;4981475;28;20439;-29
2024/01/26 08:16:06;;;;;;;2.47;2.20;;;10.20;99.90;;;;;;4985769;28;20439;-32
2024/01/26 08:18:34;;;;;;;2.50;2.20;;;10.20;99.90;;;;;;4987805;28;20416;-33
2024/01/26 08:21:00;;;;;;;2.67;2.40;;;10.20;99.90;;;;;;5020941;28;20530;-32
2024/01/26 08:23:26;;;;;;;2.87;2.53;;;10.30;99.90;;;;;;5021953;28;20487;-29
2024/01/26 08:25:52;;;;;;;4.90;2.80;;;10.30;99.90;;;;;;5021575;28;20196;-31
2024/01/26 08:28:24;;;;;;;2.80;2.57;;;10.30;99.90;;;;;;5020410;28;20439;-33
2024/01/26 08:30:57;;;;;;;2.57;2.37;;;10.30;99.90;;;;;;5023059;28;20467;-28
2024/01/26 08:33:25;;;;;;;3.70;2.50;;;10.30;99.90;;;;;;5001936;28;21271;-32
2024/01/26 08:35:51;;;;;;;3.03;2.73;;;10.30;99.90;;;;;;5000675;28;20440;-34
2024/01/26 08:38:20;;;;;;;3.97;2.67;;;10.30;99.90;;;;;;5001210;28;20428;-31
2024/01/26 08:40:46;;;;;;;3.00;2.73;;;10.30;99.90;;;;;;5019726;28;21029;-34
2024/01/26 08:43:12;;;;;;;2.80;2.60;;;10.30;99.90;;;;;;5000633;28;20463;-31
2024/01/26 08:45:38;;;;;;;4.57;3.10;;;10.30;99.90;;;;;;5017683;28;20431;-32
2024/01/26 08:48:06;;;;;;;4.83;3.37;;;10.30;99.90;;;;;;5018164;28;20459;-32
2024/01/26 08:50:36;;;;;;;3.17;2.70;;;10.30;99.90;;;;;;5019999;28;21010;-28
2024/01/26 08:53:03;;;;;;;2.57;2.37;;;10.30;99.90;;;;;;5020247;28;20431;-32
2024/01/26 08:55:29;;;;;;;5.47;3.77;;;10.30;99.90;;;;;;5003112;28;20489;-30
2024/01/26 08:57:57;;;;;;;8.70;3.10;;;10.30;99.90;;;;;;4990171;28;20432;-29
2024/01/26 09:00:26;;;;;;;3.87;2.67;;;10.30;99.90;;;;;;5000608;28;21199;-30
2024/01/26 09:02:52;;;;;;;2.97;2.67;;;10.30;99.90;;;;;;5016014;28;20467;-30
2024/01/26 09:05:21;;;;;;;5.50;3.20;;;10.30;99.90;;;;;;4983970;28;21028;-34
2024/01/26 09:07:49;;;;;;;5.40;3.03;;;10.30;99.90;;;;;;5014380;28;20447;-34
2024/01/26 09:10:15;;;;;;;4.40;3.00;;;10.30;99.90;;;;;;4998980;28;20474;-31
2024/01/26 09:12:44;;;;;;;4.17;2.90;;;10.40;99.90;;;;;;5019730;28;20473;-33
2024/01/26 09:15:14;;;;;;;4.50;3.23;;;10.40;99.90;;;;;;5019531;28;20444;-32
2024/01/26 09:17:40;;;;;;;3.30;3.00;;;10.40;99.90;;;;;;5018582;28;20443;-30
2024/01/26 09:20:07;;;;;;;9.00;3.50;;;10.40;99.90;;;;;;5018072;28;20443;-32
2024/01/26 09:22:36;;;;;;;3.50;3.20;;;10.50;99.90;;;;;;5019107;28;20948;-33
2024/01/26 09:25:02;;;;;;;4.90;2.83;;;10.50;99.90;;;;;;5002278;28;20427;-32
2024/01/26 09:27:28;;;;;;;6.93;3.93;;;10.50;99.90;;;;;;5022071;28;20477;-31
2024/01/26 09:29:54;;;;;;;4.17;3.27;;;10.50;99.90;;;;;;5019134;28;20952;-29
2024/01/26 09:32:23;;;;;;;5.23;3.57;;;10.50;99.90;;;;;;5002400;28;20456;-32
2024/01/26 09:34:49;;;;;;;4.00;3.60;;;10.60;99.90;;;;;;4999427;28;20436;-31
2024/01/26 09:37:20;;;;;;;4.90;3.50;;;10.60;99.90;;;;;;5015288;28;20434;-34
2024/01/26 09:39:46;;;;;;;4.50;3.30;;;10.60;99.90;;;;;;5017828;28;20420;-33
2024/01/26 09:42:13;;;;;;;4.00;3.60;;;10.60;99.90;;;;;;4983544;28;20447;-33
2024/01/26 09:44:39;;;;;;;7.40;3.63;;;10.60;99.90;;;;;;5015754;28;20431;-34
2024/01/26 09:47:08;;;;;;;4.20;3.30;;;10.60;99.90;;;;;;5017724;28;20442;-29
2024/01/26 09:49:36;;;;;;;3.50;3.07;;;10.70;99.90;;;;;;5019536;28;20471;-32
2024/01/26 09:52:02;;;;;;;3.30;3.00;;;10.60;99.90;;;;;;5017208;28;21236;-29
2024/01/26 09:54:29;;;;;;;4.87;3.30;;;10.60;99.90;;;;;;5017112;28;20428;-32
2024/01/26 09:56:58;;;;;;;3.77;2.90;;;10.60;99.90;;;;;;5016668;28;21286;-32
2024/01/26 09:59:24;;;;;;;3.83;3.43;;;10.70;99.90;;;;;;4983370;28;20432;-31
2024/01/26 10:01:51;;;;;;;4.23;3.13;;;10.70;99.90;;;;;;5015990;28;20513;-31
2024/01/26 10:04:19;;;;;;;4.60;3.23;;;10.70;99.90;;;;;;4995512;28;20437;-32
2024/01/26 10:06:48;;;;;;;3.57;3.03;;;10.70;99.90;;;;;;4997342;28;20474;-28
2024/01/26 10:09:17;;;;;;;4.20;3.80;;;10.70;99.90;;;;;;5016486;28;20471;-31
2024/01/26 10:11:49;;;;;;;4.77;2.97;;;10.70;99.90;;;;;;4997969;28;20465;-32
2024/01/26 10:14:25;;;;;;;4.20;3.50;;;10.70;99.90;;;;;;4997876;28;20419;-29
2024/01/26 10:17:00;;;;;;;3.83;3.40;;;10.70;99.90;;;;;;4994536;28;20455;-30
2024/01/26 10:19:31;;;;;;;3.50;3.03;;;10.70;99.90;;;;;;5014827;28;20515;-34
2024/01/26 10:22:00;;;;;;;3.63;3.33;;;10.80;99.90;;;;;;4997930;28;21162;-31
2024/01/26 10:24:27;;;;;;;3.97;3.30;;;10.80;99.90;;;;;;5013368;28;21051;-33
2024/01/26 10:26:54;;;;;;;4.37;3.43;;;10.80;99.90;;;;;;4997055;28;20436;-30
2024/01/26 10:29:22;;;;;;;3.30;3.00;;;10.80;99.90;;;;;;5015815;28;20811;-29
2024/01/26 10:31:52;;;;;;;3.47;3.13;;;10.80;99.90;;;;;;4995118;28;20505;-31
2024/01/26 10:34:21;;;;;;;4.03;3.63;;;10.80;99.90;;;;;;4997944;28;20423;-35
2024/01/26 10:36:49;;;;;;;4.00;3.13;;;10.80;99.90;;;;;;5011918;28;20444;-30
2024/01/26 10:39:29;;;;;;;4.57;3.30;;;10.80;99.90;;;;;;4997375;28;20530;-30
2024/01/26 10:42:03;;;;;;;4.03;3.37;;;10.80;99.90;;;;;;5013677;28;21161;-32
2024/01/26 10:44:33;;;;;;;3.17;2.87;;;10.80;99.90;;;;;;4991237;28;20442;-32
2024/01/26 10:47:04;;;;;;;5.17;3.00;;;10.80;99.90;;;;;;4996969;28;20447;-32
2024/01/26 10:49:41;;;;;;;3.10;2.77;;;10.80;99.90;;;;;;5014954;28;20471;-35
2024/01/26 10:52:09;;;;;;;3.67;2.73;;;10.80;99.90;;;;;;4993512;28;20442;-33
2024/01/26 10:54:40;;;;;;;3.07;2.60;;;10.90;99.90;;;;;;4997041;28;20495;-30
2024/01/26 10:57:06;;;;;;;5.40;3.40;;;10.90;99.90;;;;;;5013984;28;20436;-31
2024/01/26 10:59:35;;;;;;;3.33;2.50;;;10.90;99.90;;;;;;5012596;28;20448;-32
2024/01/26 11:02:18;;;;;;;4.83;2.83;;;10.90;99.90;;;;;;5015516;28;20950;-31
2024/01/26 11:04:48;;;;;;;4.10;3.00;;;10.90;99.90;;;;;;4987874;28;21470;-34
2024/01/26 11:07:18;;;;;;;5.87;2.60;;;10.90;99.90;;;;;;5002630;28;20434;-31
2024/01/26 11:09:49;;;;;;;3.20;2.77;;;10.90;99.90;;;;;;5019040;28;20504;-34
2024/01/26 11:12:25;;;;;;;5.27;2.67;;;10.90;99.90;;;;;;4986311;28;21233;-31
2024/01/26 11:15:08;;;;;;;3.43;2.67;;;10.90;99.90;;;;;;4979031;28;20443;-30
2024/01/26 11:17:44;;;;;;;3.47;2.83;;;10.90;99.90;;;;;;5015815;28;20550;-31
2024/01/26 11:20:31;;;;;;;2.83;2.23;;;10.90;99.90;;;;;;5014853;28;20501;-34
2024/01/26 11:23:11;;;;;;;6.20;3.17;;;10.90;99.90;;;;;;5011395;28;20428;-33
2024/01/26 11:25:43;;;;;;;5.27;2.30;;;10.90;99.90;;;;;;5019011;28;20439;-33
2024/01/26 11:28:16;;;;;;;3.67;2.83;;;10.90;99.90;;;;;;4998208;28;20451;-34
2024/01/26 11:30:54;;;;;;;3.10;2.10;;;10.80;99.90;;;;;;5018075;28;20521;-33
2024/01/26 11:33:21;;;;;;;3.10;2.20;;;10.80;99.90;;;;;;5011757;28;20447;-33
2024/01/26 11:35:48;;;;;;;8.13;2.47;;;10.80;99.90;;;;;;5000666;28;20424;-29
2024/01/26 11:38:15;;;;;;;2.70;1.80;;;10.80;99.90;;;;;;5017170;28;20426;-31
2024/01/26 11:40:41;;;;;;;5.30;2.47;;;10.80;99.90;;;;;;5000112;28;20563;-30
2024/01/26 11:43:07;;;;;;;4.03;1.97;;;10.80;99.90;;;;;;5004912;28;20439;-29
2024/01/26 11:45:48;;;;;;;4.03;2.10;;;10.80;99.90;;;;;;4969763;28;20439;-32
2024/01/26 11:48:16;;;;;;;6.07;2.07;;;10.80;99.90;;;;;;5019291;28;20443;-31
2024/01/26 11:50:44;;;;;;;2.90;1.90;;;10.80;99.90;;;;;;5003231;28;21964;-30
2024/01/26 11:53:13;;;;;;;4.20;2.10;;;10.80;99.90;;;;;;4986423;28;20443;-30
2024/01/26 11:55:42;;;;;;;3.50;1.70;;;10.80;99.90;;;;;;5020580;28;20428;-32
2024/01/26 11:58:09;;;;;;;3.43;2.10;;;10.80;99.90;;;;;;5001918;28;20469;-32
2024/01/26 12:00:37;;;;;;;5.37;2.33;;;10.80;99.90;;;;;;5019816;28;21201;-36
2024/01/26 12:03:11;;;;;;;5.27;2.53;;;10.80;99.90;;;;;;5017268;28;20463;-33
2024/01/26 12:05:38;;;;;;;5.50;2.60;;;10.80;99.90;;;;;;5018425;28;20450;-30
2024/01/26 12:08:06;;;;;;;5.00;1.93;;;10.80;99.90;;;;;;5015552;28;21964;-32
2024/01/26 12:10:35;;;;;;;3.70;1.93;;;10.80;99.90;;;;;;5018373;28;20491;-34
2024/01/26 12:13:05;;;;;;;6.07;2.10;;;10.80;99.90;;;;;;4996317;28;20444;-32
2024/01/26 12:15:55;;;;;;;7.73;1.90;;;10.80;99.90;;;;;;5017498;28;20427;-29
2024/01/26 12:18:23;;;;;;;3.60;1.87;;;10.80;99.90;;;;;;5014092;28;20475;-33
2024/01/26 12:20:52;;;;;;;6.63;2.57;;;10.80;99.90;;;;;;5015530;28;20486;-30
2024/01/26 12:23:21;;;;;;;1.80;1.63;;;10.70;99.90;;;;;;4999043;28;20455;-30
2024/01/26 12:25:52;;;;;;;5.63;1.90;;;10.70;99.90;;;;;;4997784;28;20511;-29
2024/01/26 12:28:19;;;;;;;7.50;1.77;;;10.70;99.90;;;;;;5012080;28;20447;-32
2024/01/26 12:30:50;;;;;;;3.30;1.80;;;10.70;99.90;;;;;;5020196;28;20830;-33
2024/01/26 12:33:20;;;;;;;7.77;2.30;;;10.70;99.90;;;;;;4998381;28;20452;-31
2024/01/26 12:35:46;;;;;;;2.63;1.67;;;10.70;99.90;;;;;;5017027;28;21386;-29
2024/01/26 12:38:13;;;;;;;4.47;1.97;;;10.70;99.90;;;;;;4988632;28;20938;-31
2024/01/26 12:40:42;;;;;;;6.13;2.10;;;10.70;99.90;;;;;;5023602;28;20443;-30
2024/01/26 12:43:09;;;;;;;4.83;1.80;;;10.70;99.90;;;;;;5016709;28;20486;-33
2024/01/26 12:45:38;;;;;;;3.30;1.80;;;10.70;99.90;;;;;;4999339;28;20423;-30
2024/01/26 12:48:05;;;;;;;8.20;2.43;;;10.70;99.90;;;;;;5017466;28;20921;-31
2024/01/26 12:50:33;;;;;;;7.73;2.47;;;10.70;99.90;;;;;;5000026;28;20554;-32
2024/01/26 12:53:00;;;;;;;2.23;1.63;;;10.70;99.90;;;;;;4980462;28;20834;-34
2024/01/26 12:55:29;;;;;;;5.13;1.90;;;10.70;99.90;;;;;;5017771;28;20432;-31